Time;durP1;ratioP1;P1;durP2;ratioP2;P2;SDS_P1;SDS_P2;PMS_P1;PMS_P2;Temp;Humidity;BMP_temperature;BMP_pressure;BME280_temperature;BME280_humidity;BME280_pressure;Samples;Min_cycle;Max_cycle;Signal;HPM_P1;HPM_P2
2024/02/02 00:03:38;;;;;;;11.60;2.60;;;;;;;4.51;74.92;101177.48;121813;1302;5426291;-64
2024/02/02 00:07:39;;;;;;;9.90;2.30;;;;;;;4.47;74.90;101176.11;124661;1310;114968;-63
2024/02/02 00:15:52;;;;;;;10.90;1.90;;;;;;;4.37;75.15;101177.80;125791;1311;636377;-63
2024/02/02 00:19:53;;;;;;;10.70;2.30;;;;;;;4.30;75.04;101186.70;128344;1294;127910;-63
2024/02/02 00:23:54;;;;;;;11.20;2.00;;;;;;;4.24;75.31;101177.91;126604;1308;114854;-64
2024/02/02 00:27:55;;;;;;;8.70;2.20;;;;;;;4.20;75.37;101189.98;122162;1297;5424216;-64
2024/02/02 00:31:46;;;;;;;14.90;2.40;;;;;;;4.16;75.48;101195.49;125216;1311;114988;-63
2024/02/02 00:35:47;;;;;;;7.20;1.80;;;;;;;4.11;75.69;101178.55;124598;1312;115111;-63
2024/02/02 00:44:22;;;;;;;12.00;2.00;;;;;;;4.07;76.04;101179.83;125440;1297;638107;-63
2024/02/02 00:48:23;;;;;;;10.30;1.90;;;;;;;4.01;76.16;101187.66;127959;1279;128906;-62
2024/02/02 00:52:26;;;;;;;5.20;1.90;;;;;;;3.96;76.43;101183.27;127282;1286;114923;-64
2024/02/02 00:56:17;;;;;;;4.30;0.80;;;;;;;3.92;76.68;101174.83;123269;1293;5405667;-63
2024/02/02 01:00:11;;;;;;;9.20;1.40;;;;;;;3.89;76.71;101179.62;125779;1316;116511;-62
2024/02/02 01:04:12;;;;;;;11.10;2.20;;;;;;;3.85;77.02;101178.42;125818;1316;114737;-62
2024/02/02 01:08:15;;;;;;;7.40;1.30;;;;;;;3.80;77.12;101177.93;124842;1326;114880;-64
2024/02/02 01:16:36;;;;;;;8.40;1.90;;;;;;;3.76;77.38;101196.84;125805;1300;636124;-63
2024/02/02 01:20:37;;;;;;;10.00;2.50;;;;;;;3.72;77.73;101195.66;126797;1286;128705;-64
2024/02/02 01:24:39;;;;;;;5.20;2.10;;;;;;;3.71;77.74;101196.19;126974;1283;114961;-63
2024/02/02 01:28:24;;;;;;;;;;;;;;;;;;;;;
2024/02/02 01:32:26;;;;;;;6.50;1.90;;;;;;;3.72;77.90;101187.70;125444;1319;114788;-63
2024/02/02 01:40:48;;;;;;;9.40;2.20;;;;;;;3.81;78.41;101188.70;126352;1303;636142;-63
2024/02/02 01:44:51;;;;;;;9.30;2.30;;;;;;;3.85;78.35;101191.86;128386;1286;128831;-63
2024/02/02 01:48:51;;;;;;;7.30;2.40;;;;;;;3.91;78.61;101195.69;126900;1300;115027;-62
2024/02/02 01:52:56;;;;;;;;;;;;;;;;;;;;;
2024/02/02 01:56:59;;;;;;;9.80;2.50;;;;;;;4.02;78.63;101201.63;124125;1316;115027;-62
2024/02/02 02:05:38;;;;;;;5.80;1.80;;;;;;;4.12;78.59;101194.98;125528;1302;638829;-63
2024/02/02 02:09:41;;;;;;;9.50;2.40;;;;;;;4.10;78.65;101208.10;126909;1289;130406;-66
2024/02/02 02:13:41;;;;;;;8.30;2.30;;;;;;;4.11;78.77;101203.85;126301;1313;115000;-62
2024/02/02 02:17:51;;;;;;;10.00;1.90;;;;;;;4.14;78.74;101209.85;121811;1298;5429312;-63
2024/02/02 02:26:26;;;;;;;11.50;2.20;;;;;;;4.23;78.96;101217.89;126274;1296;635999;-63
2024/02/02 02:30:27;;;;;;;12.30;2.80;;;;;;;4.26;78.98;101217.86;127904;1278;128821;-64
2024/02/02 02:34:42;;;;;;;11.30;2.90;;;;;;;4.28;78.83;101221.03;126183;1296;116562;-63
2024/02/02 02:38:43;;;;;;;9.50;2.10;;;;;;;4.28;78.86;101218.20;121177;1326;5440745;-65
2024/02/02 02:42:36;;;;;;;;;;;;;;;;;;;;;
2024/02/02 02:50:58;;;;;;;9.90;2.00;;;;;;;4.28;78.71;101207.06;125906;1300;636040;-63
2024/02/02 02:54:58;;;;;;;;;;;;;;;;;;;;;
2024/02/02 02:59:08;;;;;;;9.50;2.30;;;;;;;4.23;78.69;101212.39;125385;1303;114971;-63
2024/02/02 03:07:29;;;;;;;10.70;1.80;;;;;;;4.20;78.45;101197.58;125773;1300;636083;-65
2024/02/02 03:11:29;;;;;;;;;;;;;;;;;;;;;
2024/02/02 03:15:33;;;;;;;4.00;0.90;;;;;;;4.07;78.60;101204.05;126660;1290;115009;-62
2024/02/02 03:19:34;;;;;;;9.80;2.60;;;;;;;3.98;78.35;101212.08;121510;1305;5407334;-63
2024/02/02 03:23:27;;;;;;;;;;;;;;;;;;;;;
2024/02/02 03:31:47;;;;;;;;;;;;;;;;;;;;;
2024/02/02 03:39:58;;;;;;;14.30;2.50;;;;;;;3.57;78.53;101237.60;126290;1295;114965;-63
2024/02/02 03:43:58;;;;;;;8.90;1.80;;;;;;;3.53;78.74;101248.57;121593;1304;5421784;-63
2024/02/02 03:47:57;;;;;;;;;;;;;;;;;;;;;
2024/02/02 03:56:24;;;;;;;10.30;2.10;;;;;;;3.58;79.07;101266.36;125786;1309;636220;-63
2024/02/02 04:00:27;;;;;;;12.00;2.60;;;;;;;3.60;78.99;101269.91;128274;1278;128474;-64
2024/02/02 04:04:03;;;;;;;13.20;2.70;;;;;;;3.63;79.09;101276.26;126546;1287;114952;-63
2024/02/02 04:08:06;;;;;;;11.80;2.00;;;;;;;3.66;79.15;101279.23;126695;1308;114955;-63
2024/02/02 04:12:13;;;;;;;12.20;2.20;;;;;;;3.68;78.96;101274.99;121956;1294;114981;-64
2024/02/02 04:16:14;;;;;;;11.10;2.40;;;;;;;3.63;78.82;101279.42;125256;1323;115026;-63
2024/02/02 04:24:36;;;;;;;10.80;2.40;;;;;;;3.48;78.46;101278.45;126387;1295;635915;-64
2024/02/02 04:28:39;;;;;;;14.70;2.00;;;;;;;3.39;78.66;101285.02;127780;1302;128573;-62
2024/02/02 04:32:40;;;;;;;16.20;2.70;;;;;;;3.34;78.95;101288.73;127119;1289;114954;-64
2024/02/02 04:36:40;;;;;;;13.00;2.30;;;;;;;3.35;79.18;101283.98;122315;1310;5411139;-63
2024/02/02 04:40:41;;;;;;;13.20;1.90;;;;;;;3.37;79.33;101285.91;125296;1302;114932;-65
2024/02/02 04:44:43;;;;;;;12.40;2.20;;;;;;;3.41;79.33;101291.72;124369;1331;115029;-64
2024/02/02 04:53:04;;;;;;;15.70;3.30;;;;;;;3.52;79.69;101302.63;126518;1296;636362;-64
2024/02/02 04:57:06;;;;;;;8.70;2.30;;;;;;;3.54;79.51;101296.61;127632;1291;128848;-65
2024/02/02 05:01:11;;;;;;;;;;;;;;;;;;;;;
2024/02/02 05:05:23;;;;;;;;;;;;;;;;;;;;;
2024/02/02 05:09:28;;;;;;;12.80;3.80;;;;;;;3.58;79.85;101305.42;125459;1320;114969;-62
2024/02/02 05:13:33;;;;;;;14.00;3.00;;;;;;;3.60;79.72;101297.64;125422;1320;114881;-62
2024/02/02 05:17:36;;;;;;;10.90;2.40;;;;;;;3.62;79.66;101300.47;125445;1303;128475;-63
2024/02/02 05:21:32;;;;;;;11.50;2.50;;;;;;;3.64;79.63;101299.04;124834;1307;114914;-64
2024/02/02 05:25:34;;;;;;;;;;;;;;;;;;;;;
2024/02/02 05:30:02;;;;;;;16.90;3.20;;;;;;;3.70;79.56;101301.66;125409;1312;636557;-63
2024/02/02 05:38:30;;;;;;;;;;;;;;;;;;;;;
2024/02/02 05:42:16;;;;;;;11.40;2.30;;;;;;;3.72;79.53;101291.05;127143;1299;128473;-64
2024/02/02 05:45:59;;;;;;;;;;;;;;;3.72;79.63;101293.00;127230;1283;114913;-62
2024/02/02 05:54:02;;;;;;;14.40;2.70;;;;;;;3.73;79.62;101305.35;121947;1318;115104;-63
2024/02/02 05:58:03;;;;;;;0.90;0.70;;;;;;;3.74;79.64;101309.59;124771;1311;114940;-63
2024/02/02 06:06:26;;;;;;;10.90;2.90;;;;;;;3.80;79.53;101299.85;125860;1298;638659;-64
2024/02/02 06:10:29;;;;;;;15.40;2.60;;;;;;;3.78;79.32;101304.98;127779;1277;128976;-65
2024/02/02 06:14:29;;;;;;;;;;;;;;;;;;;;;
2024/02/02 06:18:32;;;;;;;13.50;2.50;;;;;;;3.72;79.40;101316.14;122663;1289;5421420;-62
2024/02/02 06:22:33;;;;;;;12.00;3.00;;;;;;;3.68;79.20;101323.94;125442;1319;114830;-63
2024/02/02 06:26:36;;;;;;;9.20;2.50;;;;;;;3.64;79.49;101320.42;125011;1307;115057;-62
2024/02/02 06:35:19;;;;;;;9.80;2.50;;;;;;;3.63;79.32;101332.08;126674;1292;635991;-63
2024/02/02 06:38:57;;;;;;;14.50;3.40;;;;;;;3.60;79.55;101328.20;128402;1277;128919;-63
2024/02/02 06:42:59;;;;;;;16.40;3.90;;;;;;;3.61;79.47;101328.02;127772;1301;114822;-63
2024/02/02 06:47:02;;;;;;;14.60;3.90;;;;;;;3.62;79.67;101331.55;122577;1293;5438332;-64
2024/02/02 06:51:04;;;;;;;9.80;3.10;;;;;;;3.64;79.73;101335.09;125982;1307;114951;-63
2024/02/02 06:55:05;;;;;;;11.00;3.20;;;;;;;3.68;79.80;101338.95;124531;1330;115005;-63
2024/02/02 06:59:22;;;;;;;18.00;3.80;;;;;;;3.75;79.88;101340.50;124414;1314;130174;-64
2024/02/02 07:03:21;;;;;;;;;;;;;;;;;;;;;
2024/02/02 07:11:52;;;;;;;16.80;3.70;;;;;;;3.99;79.94;101328.54;125637;1301;635739;-62
2024/02/02 07:15:54;;;;;;;16.30;4.40;;;;;;;4.07;79.70;101336.98;128608;1270;128866;-63
2024/02/02 07:19:55;;;;;;;;;;;;;;;;;;;;;
2024/02/02 07:23:56;;;;;;;;;;;;;;;;;;;;;
2024/02/02 07:28:04;;;;;;;;;;;;;;;;;;;;;
2024/02/02 07:36:20;;;;;;;13.00;3.60;;;;;;;4.46;79.78;101336.36;126876;1307;114879;-66
2024/02/02 07:48:52;;;;;;;15.10;3.70;;;;;;;4.85;79.83;101350.03;126594;1294;636346;-63
2024/02/02 08:00:57;;;;;;;12.30;3.90;;;;;;;5.21;79.57;101342.42;123270;1289;5437962;-64
2024/02/02 08:04:56;;;;;;;;;;;;;;;;;;;;;
2024/02/02 08:08:59;;;;;;;14.90;4.60;;;;;;;5.49;79.50;101345.66;125288;1322;114884;-62
2024/02/02 08:13:00;;;;;;;13.40;4.40;;;;;;;5.61;79.12;101337.91;124727;1308;129906;-63
2024/02/02 08:17:06;;;;;;;15.20;3.40;;;;;;;5.75;78.91;101332.77;124211;1322;115295;-63
2024/02/02 08:25:15;;;;;;;17.10;4.30;;;;;;;6.01;78.58;101321.98;126340;1305;636074;-62
2024/02/02 08:29:18;;;;;;;20.50;5.80;;;;;;;6.12;78.59;101322.73;128113;1294;128762;-63
2024/02/02 08:33:20;;;;;;;13.30;4.30;;;;;;;6.23;78.47;101328.95;128482;1295;114949;-64
2024/02/02 08:37:28;;;;;;;13.10;4.60;;;;;;;6.34;78.26;101326.83;123154;1289;5410845;-62
2024/02/02 08:45:36;;;;;;;16.30;4.60;;;;;;;6.50;77.76;101312.04;125133;1321;115030;-62
2024/02/02 08:53:59;;;;;;;;;;;;;;;;;;;;;
2024/02/02 08:58:17;;;;;;;;;;;;;;;;;;;;;
2024/02/02 09:02:20;;;;;;;9.20;3.40;;;;;;;6.81;76.57;101302.27;127953;1279;114942;-63
2024/02/02 09:06:32;;;;;;;16.10;4.30;;;;;;;6.88;76.57;101300.20;124224;1274;5529972;-66
2024/02/02 09:10:36;;;;;;;18.20;5.10;;;;;;;6.90;76.14;101294.48;127673;1283;114983;-65
2024/02/02 09:14:45;;;;;;;13.60;4.70;;;;;;;6.90;75.91;101293.05;126038;1314;114986;-63
2024/02/02 09:18:46;;;;;;;9.10;3.60;;;;;;;6.90;75.89;101293.23;125970;1298;129965;-63
2024/02/02 09:22:47;;;;;;;18.80;4.60;;;;;;;6.92;75.60;101289.29;125525;1301;114981;-63
2024/02/02 09:26:40;;;;;;;10.00;3.90;;;;;;;6.94;75.31;101287.65;123938;1315;114890;-62
2024/02/02 09:34:58;;;;;;;;;;;;;;;;;;;;;
2024/02/02 09:39:03;;;;;;;21.20;9.80;;;;;;;7.39;75.44;101280.04;128203;1279;129264;-63
2024/02/02 09:43:14;;;;;;;14.10;4.70;;;;;;;7.55;74.56;101266.55;127061;1285;114942;-63
2024/02/02 09:47:22;;;;;;;13.80;6.10;;;;;;;7.65;74.38;101261.89;123314;1287;5419877;-64
2024/02/02 09:51:25;;;;;;;;;;;;;;;;;;;;;
2024/02/02 09:55:47;;;;;;;16.50;4.80;;;;;;;7.78;74.23;101245.95;127241;1288;115129;-64
2024/02/02 10:00:13;;;;;;;12.60;4.50;;;;;;;7.83;73.88;101259.70;126757;1307;114873;-64
2024/02/02 10:04:28;;;;;;;11.80;4.20;;;;;;;7.86;73.32;101253.25;127158;1288;127844;-63
2024/02/02 10:13:02;;;;;;;;;;;;;;;;;;;;;
2024/02/02 10:17:09;;;;;;;;;;;;;;;;;;;;;
2024/02/02 10:21:13;;;;;;;9.20;3.70;;;;;;;8.50;72.15;101239.63;128471;1274;114813;-65
2024/02/02 10:25:22;;;;;;;16.50;4.00;;;;;;;8.68;72.37;101229.74;128564;1293;128865;-64
2024/02/02 10:29:27;;;;;;;9.40;3.50;;;;;;;8.84;71.72;101234.12;129054;1289;114822;-65
2024/02/02 10:37:33;;;;;;;14.80;3.00;;;;;;;8.97;71.09;101211.48;128848;1270;114729;-64
2024/02/02 10:41:39;;;;;;;;;;;;;;;;;;;;;
2024/02/02 10:45:58;;;;;;;6.60;3.10;;;;;;;9.11;70.49;101194.52;129032;1269;128865;-63
2024/02/02 10:50:10;;;;;;;12.10;3.40;;;;;;;9.14;69.89;101192.29;128967;1270;115611;-63
2024/02/02 10:54:25;;;;;;;10.10;3.30;;;;;;;9.08;69.43;101189.25;129272;1269;114827;-64
2024/02/02 10:58:40;;;;;;;10.80;3.80;;;;;;;8.99;69.40;101185.96;129031;1270;115267;-64
2024/02/02 11:02:53;;;;;;;11.30;4.60;;;;;;;8.91;68.84;101186.89;128624;1293;114971;-65
2024/02/02 11:07:09;;;;;;;10.80;2.90;;;;;;;8.83;68.92;101189.44;127741;1278;129007;-64
2024/02/02 11:11:12;;;;;;;13.30;4.00;;;;;;;8.80;69.17;101181.14;126928;1307;114965;-64
2024/02/02 11:15:20;;;;;;;15.90;3.80;;;;;;;8.79;68.90;101174.04;126207;1294;114973;-64
2024/02/02 11:19:48;;;;;;;10.80;4.00;;;;;;;8.76;68.93;101171.81;126241;1308;114794;-68
2024/02/02 11:23:55;;;;;;;14.10;3.90;;;;;;;8.76;68.73;101162.02;126363;1312;114900;-65
2024/02/02 11:28:06;;;;;;;9.10;3.50;;;;;;;8.74;68.24;101159.77;126276;1312;129302;-65
2024/02/02 11:32:23;;;;;;;7.30;2.50;;;;;;;8.70;68.02;101151.33;126056;1296;116660;-66
2024/02/02 11:40:47;;;;;;;;;;;;;;;;;;;;;
2024/02/02 11:44:51;;;;;;;10.50;3.30;;;;;;;8.64;67.79;101139.17;126555;1286;114875;-64
2024/02/02 11:49:06;;;;;;;;;;;;;;;;;;;;;
2024/02/02 11:53:11;;;;;;;14.30;4.50;;;;;;;8.53;67.28;101141.82;126051;1314;115345;-64
2024/02/02 11:57:18;;;;;;;10.30;3.20;;;;;;;8.60;67.53;101130.77;125598;1318;114868;-65
2024/02/02 12:01:25;;;;;;;13.60;3.10;;;;;;;8.64;67.22;101119.41;125643;1301;114957;-66
2024/02/02 12:05:25;;;;;;;10.90;3.40;;;;;;;8.64;67.31;101115.86;125671;1317;115035;-64
2024/02/02 12:09:27;;;;;;;;;;;;;;;;;;;;;
2024/02/02 12:13:38;;;;;;;11.30;2.90;;;;;;;8.62;66.97;101110.92;125651;1302;114962;-64
2024/02/02 12:21:41;;;;;;;8.90;2.80;;;;;;;8.55;67.17;101099.22;125110;1307;114961;-64
2024/02/02 12:25:42;;;;;;;13.70;3.50;;;;;;;8.55;66.75;101092.97;125470;1315;115078;-64
2024/02/02 12:33:51;;;;;;;;;;;;;;;;;;;;;
2024/02/02 12:37:53;;;;;;;9.60;2.60;;;;;;;8.58;66.67;101075.98;125032;1325;116516;-64
2024/02/02 12:41:55;;;;;;;9.80;3.10;;;;;;;8.66;67.02;101075.56;123803;1336;114968;-63
2024/02/02 12:50:15;;;;;;;;;;;;;;;;;;;;;
2024/02/02 12:54:16;;;;;;;;;;;;;;;;;;;;;
2024/02/02 12:58:19;;;;;;;9.80;3.80;;;;;;;8.73;66.49;101064.15;127579;1286;114752;-64
2024/02/02 13:02:20;;;;;;;8.80;4.00;;;;;;;8.68;67.32;101061.98;123629;1286;5417243;-65
2024/02/02 13:06:16;;;;;;;;;;;;;;;;;;;;;
2024/02/02 13:10:34;;;;;;;10.10;3.00;;;;;;;8.54;67.35;101039.95;126025;1296;115015;-64
2024/02/02 13:14:44;;;;;;;9.90;2.90;;;;;;;8.53;67.74;101026.96;124950;1326;115321;-64
2024/02/02 13:23:05;;;;;;;10.80;4.20;;;;;;;8.54;67.96;100999.72;126248;1292;636337;-67
2024/02/02 13:31:42;;;;;;;9.30;2.60;;;;;;;8.43;67.55;100989.51;127520;1303;114961;-65
2024/02/02 13:36:03;;;;;;;13.70;4.50;;;;;;;8.32;68.05;100984.66;123240;1290;5433170;-65
2024/02/02 13:40:02;;;;;;;14.80;5.00;;;;;;;8.28;68.41;100978.89;126677;1292;115043;-67
2024/02/02 13:44:04;;;;;;;8.90;3.40;;;;;;;8.21;68.34;100973.23;125701;1318;114868;-64
2024/02/02 13:48:03;;;;;;;9.90;3.40;;;;;;;8.11;68.62;100961.42;126082;1296;129926;-65
2024/02/02 13:52:05;;;;;;;7.70;2.90;;;;;;;8.07;68.82;100956.36;125092;1307;114904;-64
2024/02/02 14:00:31;;;;;;;11.30;4.20;;;;;;;8.04;69.22;100938.48;126568;1295;635943;-65
2024/02/02 14:04:31;;;;;;;;;;;;;;;;;;;;;
2024/02/02 14:08:37;;;;;;;17.20;8.60;;;;;;;8.00;69.57;100924.71;126738;1287;114898;-65
2024/02/02 14:12:41;;;;;;;13.10;4.20;;;;;;;7.96;69.37;100928.94;122612;1295;5488817;-65
2024/02/02 14:16:42;;;;;;;17.60;9.20;;;;;;;7.86;69.19;100910.36;124615;1330;114799;-67
2024/02/02 14:20:41;;;;;;;;;;;;;;;;;;;;;
2024/02/02 14:29:13;;;;;;;;;;;;;;;;;;;;;
2024/02/02 14:33:19;;;;;;;12.80;4.20;;;;;;;7.49;69.72;100881.34;129274;1279;128869;-66
2024/02/02 14:37:18;;;;;;;;;;;;;;;;;;;;;
2024/02/02 14:41:14;;;;;;;;;;;;;;;;;;;;;
2024/02/02 14:44:58;;;;;;;;;;;;;;;;;;;;;
2024/02/02 14:49:01;;;;;;;14.40;6.70;;;;;;;7.22;70.08;100881.52;125379;1322;115374;-64
2024/02/02 14:57:18;;;;;;;;;;;;;;;;;;;;;
2024/02/02 15:01:27;;;;;;;16.30;7.10;;;;;;;7.06;70.37;100865.59;128909;1275;129051;-65
2024/02/02 15:05:24;;;;;;;19.40;7.40;;;;;;;6.98;70.23;100865.25;128063;1278;114936;-64
2024/02/02 15:09:53;;;;;;;12.50;5.60;;;;;;;6.91;70.43;100854.61;122676;1290;5439123;-66
2024/02/02 15:13:20;;;;;;;;;;;;;;;;;;;;;
2024/02/02 15:17:20;;;;;;;;;;;;;;;;;;;;;
2024/02/02 15:21:21;;;;;;;12.60;6.50;;;;;;;6.74;70.77;100843.67;124975;1327;115002;-65
2024/02/02 15:29:41;;;;;;;10.90;6.20;;;;;;;6.65;70.49;100830.40;126181;1296;635919;-66
2024/02/02 15:33:36;;;;;;;;;;;;;;;;;;;;;
2024/02/02 15:37:40;;;;;;;11.50;6.60;;;;;;;6.52;70.68;100803.92;127336;1306;114887;-66
2024/02/02 15:41:40;;;;;;;14.80;8.40;;;;;;;6.46;70.44;100796.80;122493;1292;5426208;-68
2024/02/02 15:45:38;;;;;;;;;;;;;;;;;;;;;
2024/02/02 15:49:33;;;;;;;17.40;8.90;;;;;;;6.29;70.54;100791.35;125181;1311;114952;-68
2024/02/02 15:57:53;;;;;;;;;;;;;;;;;;;;;
2024/02/02 16:01:56;;;;;;;19.40;10.10;;;;;;;6.15;70.69;100774.11;128137;1284;128771;-65
2024/02/02 16:05:58;;;;;;;14.80;6.80;;;;;;;6.12;70.82;100767.27;127220;1308;114934;-66
2024/02/02 16:09:59;;;;;;;;;;;;;;;;;;;;;
2024/02/02 16:14:00;;;;;;;14.10;9.00;;;;;;;6.05;70.83;100772.92;125495;1321;114964;-66
2024/02/02 16:18:01;;;;;;;13.90;7.70;;;;;;;6.02;71.03;100766.44;125568;1309;114830;-64
2024/02/02 16:22:01;;;;;;;;;;;;;;;;;;;;;
2024/02/02 16:26:16;;;;;;;;;;;;;;;;;;;;;
2024/02/02 16:30:19;;;;;;;14.30;7.80;;;;;;;5.97;71.09;100747.19;128465;1274;128077;-64
2024/02/02 16:34:21;;;;;;;13.70;7.20;;;;;;;5.97;71.26;100731.94;127589;1287;114916;-65
2024/02/02 16:38:33;;;;;;;15.50;8.30;;;;;;;5.97;71.18;100724.48;122387;1295;5421221;-68
2024/02/02 16:42:30;;;;;;;17.40;8.00;;;;;;;5.98;71.26;100718.10;125057;1328;114968;-64
2024/02/02 16:50:39;;;;;;;;;;;;;;;;;;;;;
2024/02/02 16:54:45;;;;;;;23.80;14.30;;;;;;;5.97;71.30;100725.02;128491;1296;128093;-64
2024/02/02 16:58:47;;;;;;;30.50;17.80;;;;;;;5.97;71.30;100714.74;126829;1298;114899;-64
2024/02/02 17:02:51;;;;;;;21.20;11.00;;;;;;;5.99;71.61;100712.77;122381;1298;5432893;-65
2024/02/02 17:15:12;;;;;;;39.70;20.00;;;;;;;6.02;71.62;100681.52;125924;1292;636220;-64
2024/02/02 17:23:18;;;;;;;24.40;11.10;;;;;;;6.03;71.64;100675.64;126361;1309;114927;-67
2024/02/02 17:27:10;;;;;;;;;;;;;;;;;;;;;
2024/02/02 17:31:13;;;;;;;26.30;13.10;;;;;;;6.02;71.75;100670.70;124744;1327;115278;-64
2024/02/02 17:34:59;;;;;;;225.00;101.10;;;;;;;6.03;71.79;100668.73;123651;1337;115022;-64
2024/02/02 17:43:11;;;;;;;21.30;12.30;;;;;;;6.07;71.90;100660.98;126332;1295;636246;-64
2024/02/02 17:47:32;;;;;;;21.50;11.90;;;;;;;6.06;71.72;100650.56;128873;1275;128656;-67
2024/02/02 17:51:09;;;;;;;;;;;;;;;;;;;;;
2024/02/02 17:55:04;;;;;;;21.60;10.20;;;;;;;6.05;71.80;100628.42;122920;1293;5436116;-65
2024/02/02 17:59:05;;;;;;;22.30;10.70;;;;;;;6.07;71.86;100613.66;125672;1300;114881;-65
2024/02/02 18:03:06;;;;;;;20.60;10.00;;;;;;;6.08;71.89;100603.17;125687;1300;114898;-66
2024/02/02 18:11:28;;;;;;;17.90;9.10;;;;;;;6.09;72.03;100604.55;126116;1295;636047;-65
2024/02/02 18:19:37;;;;;;;17.50;9.00;;;;;;;6.11;71.96;100589.78;127279;1290;114882;-65
2024/02/02 18:23:34;;;;;;;;;;;;;;;;;;;;;
2024/02/02 18:27:35;;;;;;;;;;;;;;;;;;;;;
2024/02/02 18:31:37;;;;;;;13.70;6.50;;;;;;;6.16;71.89;100559.87;124945;1327;115177;-65
2024/02/02 18:35:36;;;;;;;;;;;;;;;;;;;;;
2024/02/02 18:43:57;;;;;;;11.40;6.90;;;;;;;6.21;72.17;100554.24;126187;1302;635283;-67
2024/02/02 18:48:01;;;;;;;13.20;8.20;;;;;;;6.20;72.00;100543.98;128540;1279;128000;-64
2024/02/02 18:51:55;;;;;;;;;;;;;;;;;;;;;
2024/02/02 18:56:00;;;;;;;13.90;7.40;;;;;;;6.22;72.08;100548.50;122273;1299;5424003;-64
2024/02/02 19:04:01;;;;;;;11.80;6.40;;;;;;;6.26;72.17;100535.66;124703;1327;114970;-64
2024/02/02 19:08:03;;;;;;;14.70;8.70;;;;;;;6.29;72.29;100524.94;124197;1317;129747;-63
2024/02/02 19:16:28;;;;;;;12.90;7.30;;;;;;;6.35;72.26;100517.65;126201;1295;635478;-66
2024/02/02 19:20:29;;;;;;;;;;;;;;;;;;;;;
2024/02/02 19:24:33;;;;;;;17.60;8.20;;;;;;;6.37;72.64;100517.59;128096;1282;115440;-64
2024/02/02 19:28:35;;;;;;;15.10;8.80;;;;;;;6.38;72.59;100509.23;123058;1290;5404523;-65
2024/02/02 19:32:36;;;;;;;16.00;9.00;;;;;;;6.40;72.63;100505.45;125830;1302;114947;-67
2024/02/02 19:36:37;;;;;;;19.30;9.90;;;;;;;6.41;72.62;100498.15;125372;1323;114974;-65
2024/02/02 19:40:41;;;;;;;18.00;9.70;;;;;;;6.43;72.47;100500.75;123742;1319;129887;-65
2024/02/02 19:44:35;;;;;;;;;;;;;;;;;;;;;
2024/02/02 19:48:51;;;;;;;17.40;9.40;;;;;;;6.49;72.72;100500.23;126244;1303;636124;-63
2024/02/02 19:52:56;;;;;;;15.90;9.40;;;;;;;6.49;72.81;100505.54;128872;1267;128205;-65
2024/02/02 19:56:47;;;;;;;19.30;10.00;;;;;;;6.50;72.66;100511.72;129249;1288;114734;-63
2024/02/02 20:00:52;;;;;;;16.20;9.90;;;;;;;6.51;72.78;100515.25;125912;1288;5436028;-65
2024/02/02 20:04:54;;;;;;;14.30;8.40;;;;;;;6.52;73.03;100515.91;127315;1307;115024;-65
2024/02/02 20:08:48;;;;;;;12.90;8.00;;;;;;;6.53;73.06;100511.10;125998;1301;115046;-65
2024/02/02 20:12:41;;;;;;;;;;;;;;;;;;;;;
2024/02/02 20:16:42;;;;;;;14.30;8.20;;;;;;;6.55;73.40;100512.46;124784;1311;114962;-65
2024/02/02 20:25:02;;;;;;;16.50;8.50;;;;;;;6.59;73.24;100502.60;126230;1304;636131;-64
2024/02/02 20:29:02;;;;;;;;;;;;;;;;;;;;;
2024/02/02 20:33:06;;;;;;;14.30;7.80;;;;;;;6.59;73.06;100509.35;129140;1273;115035;-65
2024/02/02 20:36:59;;;;;;;;;;;;;;;;;;;;;
2024/02/02 20:45:02;;;;;;;;;;;;;;;;;;;;;
2024/02/02 20:49:04;;;;;;;8.20;2.90;;;;;;;6.66;73.38;100501.84;125431;1321;114910;-63
2024/02/02 20:57:23;;;;;;;;;;;;;;;;;;;;;
2024/02/02 21:01:27;;;;;;;5.30;1.90;;;;;;;6.94;73.43;100498.52;127697;1292;128357;-66
2024/02/02 21:05:29;;;;;;;6.80;2.50;;;;;;;7.03;73.28;100495.75;127733;1286;114999;-65
2024/02/02 21:09:13;;;;;;;6.40;2.90;;;;;;;7.11;73.30;100481.46;123599;1287;5428323;-65
2024/02/02 21:13:18;;;;;;;7.10;2.60;;;;;;;7.17;73.14;100487.84;126452;1291;114956;-65
2024/02/02 21:17:13;;;;;;;;;;;;;;;;;;;;;
2024/02/02 21:25:27;;;;;;;;;;;;;;;;;;;;;
2024/02/02 21:29:25;;;;;;;8.50;3.80;;;;;;;7.38;72.75;100480.77;127684;1278;127144;-63
2024/02/02 21:33:16;;;;;;;8.20;3.10;;;;;;;7.41;72.73;100479.59;127513;1279;114752;-64
2024/02/02 21:37:19;;;;;;;12.00;3.10;;;;;;;7.43;72.75;100471.88;128025;1281;114835;-64
2024/02/02 21:41:22;;;;;;;8.90;2.90;;;;;;;7.46;72.61;100474.63;123021;1289;115152;-64
2024/02/02 21:45:23;;;;;;;6.90;3.00;;;;;;;7.48;72.55;100478.46;125295;1323;115326;-63
2024/02/02 21:57:15;;;;;;;;;;;;;;;;;;;;;
2024/02/02 22:01:04;;;;;;;;;;;;;;;;;;;;;
2024/02/02 22:05:09;;;;;;;9.40;3.50;;;;;;;7.54;72.65;100449.83;128574;1285;114936;-64
2024/02/02 22:09:11;;;;;;;8.80;4.10;;;;;;;7.55;72.56;100444.98;123417;1284;114980;-64
2024/02/02 22:17:15;;;;;;;6.90;4.30;;;;;;;7.55;72.93;100446.60;125900;1319;114860;-64
2024/02/02 22:21:18;;;;;;;9.10;3.20;;;;;;;7.56;72.91;100441.41;124465;1307;129948;-64
2024/02/02 22:28:51;;;;;;;;;;;;;;;;;;;;;
2024/02/02 22:32:54;;;;;;;7.70;3.50;;;;;;;7.59;73.12;100423.70;129281;1270;128268;-64
2024/02/02 22:37:00;;;;;;;8.20;3.20;;;;;;;7.60;73.15;100422.94;129333;1269;114738;-64
2024/02/02 22:41:03;;;;;;;8.00;3.70;;;;;;;7.62;73.48;100415.06;128656;1282;114784;-65
2024/02/02 22:44:59;;;;;;;5.80;3.20;;;;;;;7.63;73.12;100418.59;123585;1306;115005;-64
2024/02/02 22:49:00;;;;;;;5.60;2.70;;;;;;;7.64;73.43;100417.67;126695;1295;114911;-65
2024/02/02 22:57:13;;;;;;;;;;;;;;;;;;;;;
2024/02/02 23:01:17;;;;;;;6.20;3.20;;;;;;;7.70;73.52;100413.00;128790;1276;127877;-64
2024/02/02 23:05:19;;;;;;;7.00;3.20;;;;;;;7.71;73.42;100407.64;128771;1278;114989;-64
2024/02/02 23:13:29;;;;;;;10.00;5.10;;;;;;;7.72;73.56;100398.52;125275;1326;114913;-66
2024/02/02 23:21:55;;;;;;;8.30;4.50;;;;;;;7.79;73.91;100394.41;125870;1297;636434;-64
2024/02/02 23:25:56;;;;;;;11.30;5.00;;;;;;;7.78;74.37;100383.95;128691;1278;128796;-64
2024/02/02 23:29:59;;;;;;;6.50;3.90;;;;;;;7.79;74.23;100380.89;128130;1284;114906;-65
2024/02/02 23:34:06;;;;;;;10.20;4.50;;;;;;;7.79;74.30;100385.68;123883;1283;5441441;-66
2024/02/02 23:38:07;;;;;;;6.40;3.40;;;;;;;7.80;74.60;100387.43;126139;1297;114974;-65
2024/02/02 23:46:27;;;;;;;10.60;5.50;;;;;;;7.82;74.75;100379.16;126464;1292;636546;-65
2024/02/02 23:50:27;;;;;;;;;;;;;;;;;;;;;
2024/02/02 23:54:14;;;;;;;11.10;6.90;;;;;;;7.81;75.03;100365.50;126686;1292;114845;-65
2024/02/02 23:58:23;;;;;;;9.80;4.90;;;;;;;7.80;75.32;100365.53;126530;1296;115045;-65
